sensor_id;sensor_type;location;lat;lon;timestamp;pressure;altitude;pressure_sealevel;temperature;humidity
47080;BME280;33067;49.296;14.470;2023-04-19T00:01:50;97459.39;;;11.89;41.53
47080;BME280;33067;49.296;14.470;2023-04-19T00:04:15;97456.62;;;11.41;41.51
47080;BME280;33067;49.296;14.470;2023-04-19T00:06:40;97455.14;;;11.77;41.09
47080;BME280;33067;49.296;14.470;2023-04-19T00:09:05;97454.45;;;11.41;41.88
47080;BME280;33067;49.296;14.470;2023-04-19T00:11:31;97450.97;;;11.32;41.24
47080;BME280;33067;49.296;14.470;2023-04-19T00:13:56;97450.47;;;11.21;41.52
47080;BME280;33067;49.296;14.470;2023-04-19T00:16:22;97446.01;;;11.23;41.63
47080;BME280;33067;49.296;14.470;2023-04-19T00:18:48;97444.13;;;11.58;41.91
47080;BME280;33067;49.296;14.470;2023-04-19T00:21:13;97440.43;;;11.33;42.08
47080;BME280;33067;49.296;14.470;2023-04-19T00:23:38;97439.45;;;11.48;42.61
47080;BME280;33067;49.296;14.470;2023-04-19T00:26:04;97437.27;;;11.29;42.27
47080;BME280;33067;49.296;14.470;2023-04-19T00:28:29;97439.21;;;11.71;41.83
47080;BME280;33067;49.296;14.470;2023-04-19T00:30:54;97436.95;;;11.48;41.54
47080;BME280;33067;49.296;14.470;2023-04-19T00:33:19;97434.68;;;11.81;40.97
47080;BME280;33067;49.296;14.470;2023-04-19T00:35:45;97428.78;;;11.95;40.85
47080;BME280;33067;49.296;14.470;2023-04-19T00:38:11;97426.01;;;11.83;41.15
47080;BME280;33067;49.296;14.470;2023-04-19T00:40:37;97421.03;;;11.61;41.56
47080;BME280;33067;49.296;14.470;2023-04-19T00:43:02;97419.12;;;11.42;41.60
47080;BME280;33067;49.296;14.470;2023-04-19T00:45:28;97420.82;;;11.83;41.21
47080;BME280;33067;49.296;14.470;2023-04-19T00:47:54;97417.36;;;11.56;41.21
47080;BME280;33067;49.296;14.470;2023-04-19T00:50:19;97411.29;;;11.33;41.79
47080;BME280;33067;49.296;14.470;2023-04-19T00:52:45;97413.25;;;11.26;41.56
47080;BME280;33067;49.296;14.470;2023-04-19T00:55:09;97411.96;;;11.64;41.81
47080;BME280;33067;49.296;14.470;2023-04-19T00:57:36;97411.55;;;11.37;41.55
47080;BME280;33067;49.296;14.470;2023-04-19T01:00:01;97407.39;;;11.41;41.89
47080;BME280;33067;49.296;14.470;2023-04-19T01:02:26;97405.34;;;11.61;41.69
47080;BME280;33067;49.296;14.470;2023-04-19T01:04:51;97396.16;;;11.15;42.07
47080;BME280;33067;49.296;14.470;2023-04-19T01:07:17;97393.84;;;11.32;42.02
47080;BME280;33067;49.296;14.470;2023-04-19T01:09:42;97392.83;;;11.57;41.64
47080;BME280;33067;49.296;14.470;2023-04-19T01:12:07;97389.81;;;11.20;41.94
47080;BME280;33067;49.296;14.470;2023-04-19T01:14:33;97386.89;;;11.35;42.09
47080;BME280;33067;49.296;14.470;2023-04-19T01:16:59;97387.59;;;11.35;41.92
47080;BME280;33067;49.296;14.470;2023-04-19T01:19:24;97381.43;;;11.28;42.38
47080;BME280;33067;49.296;14.470;2023-04-19T01:21:50;97379.77;;;11.41;42.14
47080;BME280;33067;49.296;14.470;2023-04-19T01:24:15;97378.39;;;11.42;42.23
47080;BME280;33067;49.296;14.470;2023-04-19T01:26:40;97377.28;;;11.36;42.12
47080;BME280;33067;49.296;14.470;2023-04-19T01:29:06;97376.06;;;11.18;42.11
47080;BME280;33067;49.296;14.470;2023-04-19T01:31:31;97374.13;;;11.57;41.81
47080;BME280;33067;49.296;14.470;2023-04-19T01:33:56;97372.14;;;11.27;42.34
47080;BME280;33067;49.296;14.470;2023-04-19T01:36:21;97369.39;;;11.47;42.86
47080;BME280;33067;49.296;14.470;2023-04-19T01:38:48;97367.06;;;11.20;42.79
47080;BME280;33067;49.296;14.470;2023-04-19T01:41:14;97365.21;;;11.22;43.16
47080;BME280;33067;49.296;14.470;2023-04-19T01:43:38;97363.51;;;10.75;43.65
47080;BME280;33067;49.296;14.470;2023-04-19T01:46:04;97363.39;;;10.90;43.89
47080;BME280;33067;49.296;14.470;2023-04-19T01:48:29;97363.87;;;10.82;44.10
47080;BME280;33067;49.296;14.470;2023-04-19T01:50:54;97363.81;;;10.64;44.25
47080;BME280;33067;49.296;14.470;2023-04-19T01:53:19;97363.35;;;10.81;43.93
47080;BME280;33067;49.296;14.470;2023-04-19T01:55:47;97360.94;;;10.76;43.95
47080;BME280;33067;49.296;14.470;2023-04-19T01:58:11;97355.48;;;10.71;43.94
47080;BME280;33067;49.296;14.470;2023-04-19T02:00:35;97356.03;;;10.74;43.79
47080;BME280;33067;49.296;14.470;2023-04-19T02:03:03;97353.48;;;10.71;44.18
47080;BME280;33067;49.296;14.470;2023-04-19T02:05:26;97349.27;;;10.45;44.38
47080;BME280;33067;49.296;14.470;2023-04-19T02:07:53;97345.11;;;10.73;44.33
47080;BME280;33067;49.296;14.470;2023-04-19T02:13:00;97343.84;;;10.72;44.19
47080;BME280;33067;49.296;14.470;2023-04-19T02:15:25;97340.30;;;10.12;44.36
47080;BME280;33067;49.296;14.470;2023-04-19T02:17:51;97338.83;;;10.50;44.75
47080;BME280;33067;49.296;14.470;2023-04-19T02:20:17;97333.91;;;10.43;45.02
47080;BME280;33067;49.296;14.470;2023-04-19T02:22:42;97330.92;;;10.64;45.09
47080;BME280;33067;49.296;14.470;2023-04-19T02:25:07;97326.30;;;10.42;45.93
47080;BME280;33067;49.296;14.470;2023-04-19T02:27:33;97322.16;;;10.55;45.91
47080;BME280;33067;49.296;14.470;2023-04-19T02:29:59;97320.50;;;10.56;45.78
47080;BME280;33067;49.296;14.470;2023-04-19T02:32:24;97320.78;;;10.67;45.30
47080;BME280;33067;49.296;14.470;2023-04-19T02:34:50;97319.61;;;10.57;45.30
47080;BME280;33067;49.296;14.470;2023-04-19T02:37:15;97317.03;;;10.67;44.92
47080;BME280;33067;49.296;14.470;2023-04-19T02:39:40;97315.24;;;10.51;44.76
47080;BME280;33067;49.296;14.470;2023-04-19T02:42:08;97311.85;;;10.86;44.97
47080;BME280;33067;49.296;14.470;2023-04-19T02:44:32;97314.29;;;10.69;44.92
47080;BME280;33067;49.296;14.470;2023-04-19T02:46:59;97311.74;;;10.67;45.08
47080;BME280;33067;49.296;14.470;2023-04-19T02:49:23;97307.54;;;10.72;44.98
47080;BME280;33067;49.296;14.470;2023-04-19T02:51:49;97306.37;;;10.77;44.89
47080;BME280;33067;49.296;14.470;2023-04-19T02:54:14;97301.45;;;10.78;44.91
47080;BME280;33067;49.296;14.470;2023-04-19T02:56:40;97299.26;;;10.79;45.02
47080;BME280;33067;49.296;14.470;2023-04-19T02:59:06;97299.09;;;10.78;45.18
47080;BME280;33067;49.296;14.470;2023-04-19T03:01:30;97296.59;;;11.02;45.28
47080;BME280;33067;49.296;14.470;2023-04-19T03:03:56;97293.89;;;11.03;45.33
47080;BME280;33067;49.296;14.470;2023-04-19T03:06:21;97292.19;;;10.93;45.05
47080;BME280;33067;49.296;14.470;2023-04-19T03:08:47;97292.20;;;10.90;45.32
47080;BME280;33067;49.296;14.470;2023-04-19T03:11:16;97288.05;;;10.84;45.63
47080;BME280;33067;49.296;14.470;2023-04-19T03:13:38;97287.81;;;10.58;45.98
47080;BME280;33067;49.296;14.470;2023-04-19T03:16:04;97280.87;;;10.88;46.19
47080;BME280;33067;49.296;14.470;2023-04-19T03:18:28;97279.98;;;10.95;46.29
47080;BME280;33067;49.296;14.470;2023-04-19T03:20:56;97275.18;;;11.04;46.32
47080;BME280;33067;49.296;14.470;2023-04-19T03:23:19;97273.57;;;11.02;46.56
47080;BME280;33067;49.296;14.470;2023-04-19T03:25:45;97271.29;;;11.12;46.49
47080;BME280;33067;49.296;14.470;2023-04-19T03:28:12;97261.12;;;10.78;46.81
47080;BME280;33067;49.296;14.470;2023-04-19T03:30:35;97260.79;;;11.06;46.87
47080;BME280;33067;49.296;14.470;2023-04-19T03:33:00;97258.80;;;10.52;47.16
47080;BME280;33067;49.296;14.470;2023-04-19T03:35:26;97257.21;;;10.77;46.85
47080;BME280;33067;49.296;14.470;2023-04-19T03:37:51;97254.45;;;10.81;46.98
47080;BME280;33067;49.296;14.470;2023-04-19T03:40:17;97251.07;;;11.01;46.72
47080;BME280;33067;49.296;14.470;2023-04-19T03:42:42;97243.43;;;11.07;46.47
47080;BME280;33067;49.296;14.470;2023-04-19T03:45:09;97240.34;;;11.64;45.89
47080;BME280;33067;49.296;14.470;2023-04-19T03:47:33;97239.73;;;11.31;45.46
47080;BME280;33067;49.296;14.470;2023-04-19T03:49:59;97237.06;;;11.40;45.33
47080;BME280;33067;49.296;14.470;2023-04-19T03:52:24;97240.12;;;11.34;45.62
47080;BME280;33067;49.296;14.470;2023-04-19T03:54:50;97238.50;;;11.24;45.77
47080;BME280;33067;49.296;14.470;2023-04-19T03:57:15;97235.67;;;11.16;45.72
47080;BME280;33067;49.296;14.470;2023-04-19T03:59:40;97232.40;;;11.29;46.48
47080;BME280;33067;49.296;14.470;2023-04-19T04:02:06;97231.63;;;11.37;46.45
47080;BME280;33067;49.296;14.470;2023-04-19T04:04:31;97227.70;;;10.76;46.87
47080;BME280;33067;49.296;14.470;2023-04-19T04:06:57;97226.82;;;11.43;46.98
47080;BME280;33067;49.296;14.470;2023-04-19T04:09:23;97227.13;;;11.06;47.01
47080;BME280;33067;49.296;14.470;2023-04-19T04:11:48;97228.36;;;11.42;46.70
47080;BME280;33067;49.296;14.470;2023-04-19T04:14:14;97226.19;;;11.13;46.88
47080;BME280;33067;49.296;14.470;2023-04-19T04:16:40;97224.00;;;11.21;47.18
47080;BME280;33067;49.296;14.470;2023-04-19T04:19:05;97221.66;;;11.52;46.91
47080;BME280;33067;49.296;14.470;2023-04-19T04:21:30;97219.74;;;11.30;46.79
47080;BME280;33067;49.296;14.470;2023-04-19T04:23:56;97221.58;;;10.94;47.03
47080;BME280;33067;49.296;14.470;2023-04-19T04:26:22;97221.37;;;11.27;47.04
47080;BME280;33067;49.296;14.470;2023-04-19T04:28:48;97217.68;;;11.61;46.96
47080;BME280;33067;49.296;14.470;2023-04-19T04:31:13;97214.79;;;11.71;46.64
47080;BME280;33067;49.296;14.470;2023-04-19T04:33:38;97211.85;;;11.24;46.70
47080;BME280;33067;49.296;14.470;2023-04-19T04:36:04;97213.05;;;11.33;46.75
47080;BME280;33067;49.296;14.470;2023-04-19T04:38:29;97212.57;;;11.78;46.53
47080;BME280;33067;49.296;14.470;2023-04-19T04:40:55;97212.97;;;11.69;46.68
47080;BME280;33067;49.296;14.470;2023-04-19T04:43:21;97213.15;;;11.68;46.63
47080;BME280;33067;49.296;14.470;2023-04-19T04:45:46;97209.07;;;11.59;46.75
47080;BME280;33067;49.296;14.470;2023-04-19T04:48:11;97207.03;;;11.58;47.01
47080;BME280;33067;49.296;14.470;2023-04-19T04:50:36;97204.75;;;11.66;46.84
47080;BME280;33067;49.296;14.470;2023-04-19T04:53:01;97205.69;;;11.54;46.62
47080;BME280;33067;49.296;14.470;2023-04-19T04:55:27;97205.41;;;11.79;46.76
47080;BME280;33067;49.296;14.470;2023-04-19T04:57:52;97201.61;;;11.63;46.92
47080;BME280;33067;49.296;14.470;2023-04-19T05:00:17;97199.55;;;11.33;47.56
47080;BME280;33067;49.296;14.470;2023-04-19T05:02:42;97200.90;;;11.57;47.47
47080;BME280;33067;49.296;14.470;2023-04-19T05:05:08;97197.87;;;11.66;47.32
47080;BME280;33067;49.296;14.470;2023-04-19T05:07:34;97195.48;;;11.87;46.99
47080;BME280;33067;49.296;14.470;2023-04-19T05:09:59;97195.01;;;12.08;46.56
47080;BME280;33067;49.296;14.470;2023-04-19T05:12:25;97191.88;;;11.85;46.85
47080;BME280;33067;49.296;14.470;2023-04-19T05:14:50;97191.17;;;11.87;46.87
47080;BME280;33067;49.296;14.470;2023-04-19T05:17:16;97190.96;;;11.80;46.91
47080;BME280;33067;49.296;14.470;2023-04-19T05:19:41;97190.12;;;11.71;47.01
47080;BME280;33067;49.296;14.470;2023-04-19T05:22:06;97190.07;;;11.74;47.20
47080;BME280;33067;49.296;14.470;2023-04-19T05:24:32;97184.58;;;11.98;46.98
47080;BME280;33067;49.296;14.470;2023-04-19T05:26:57;97184.58;;;12.24;46.60
47080;BME280;33067;49.296;14.470;2023-04-19T05:29:22;97180.94;;;11.88;46.73
47080;BME280;33067;49.296;14.470;2023-04-19T05:31:48;97181.99;;;11.90;46.79
47080;BME280;33067;49.296;14.470;2023-04-19T05:34:13;97178.75;;;11.95;46.65
47080;BME280;33067;49.296;14.470;2023-04-19T05:36:39;97174.68;;;10.76;46.55
47080;BME280;33067;49.296;14.470;2023-04-19T05:39:04;97172.54;;;12.29;46.32
47080;BME280;33067;49.296;14.470;2023-04-19T05:41:30;97171.67;;;11.90;46.76
47080;BME280;33067;49.296;14.470;2023-04-19T05:43:55;97167.17;;;11.76;47.29
47080;BME280;33067;49.296;14.470;2023-04-19T05:46:21;97168.24;;;12.13;47.18
47080;BME280;33067;49.296;14.470;2023-04-19T05:48:46;97168.34;;;12.17;47.18
47080;BME280;33067;49.296;14.470;2023-04-19T05:51:12;97166.44;;;12.21;46.99
47080;BME280;33067;49.296;14.470;2023-04-19T05:53:37;97164.18;;;12.08;47.06
47080;BME280;33067;49.296;14.470;2023-04-19T05:56:03;97161.96;;;12.27;47.31
47080;BME280;33067;49.296;14.470;2023-04-19T05:58:27;97157.14;;;11.75;47.76
47080;BME280;33067;49.296;14.470;2023-04-19T06:00:53;97155.41;;;11.83;47.31
47080;BME280;33067;49.296;14.470;2023-04-19T06:03:18;97154.71;;;12.01;47.61
47080;BME280;33067;49.296;14.470;2023-04-19T06:05:43;97150.76;;;12.31;47.31
47080;BME280;33067;49.296;14.470;2023-04-19T06:08:09;97152.46;;;12.32;47.11
47080;BME280;33067;49.296;14.470;2023-04-19T06:10:35;97149.50;;;12.41;47.23
47080;BME280;33067;49.296;14.470;2023-04-19T06:13:00;97149.29;;;12.04;47.51
47080;BME280;33067;49.296;14.470;2023-04-19T06:15:25;97147.04;;;12.29;47.65
47080;BME280;33067;49.296;14.470;2023-04-19T06:17:51;97146.81;;;12.30;47.37
47080;BME280;33067;49.296;14.470;2023-04-19T06:20:17;97145.92;;;11.93;48.14
47080;BME280;33067;49.296;14.470;2023-04-19T06:22:44;97146.37;;;11.47;48.52
47080;BME280;33067;49.296;14.470;2023-04-19T06:25:08;97145.12;;;11.86;48.28
47080;BME280;33067;49.296;14.470;2023-04-19T06:27:32;97143.76;;;12.13;48.06
47080;BME280;33067;49.296;14.470;2023-04-19T06:29:58;97142.62;;;11.87;47.98
47080;BME280;33067;49.296;14.470;2023-04-19T06:32:23;97149.55;;;11.54;48.52
47080;BME280;33067;49.296;14.470;2023-04-19T06:34:50;97155.43;;;11.48;48.74
47080;BME280;33067;49.296;14.470;2023-04-19T06:37:14;97153.91;;;11.47;48.40
47080;BME280;33067;49.296;14.470;2023-04-19T06:39:40;97151.87;;;11.76;48.33
47080;BME280;33067;49.296;14.470;2023-04-19T06:42:05;97152.71;;;11.51;48.55
47080;BME280;33067;49.296;14.470;2023-04-19T06:44:30;97151.84;;;11.73;48.68
47080;BME280;33067;49.296;14.470;2023-04-19T06:46:56;97143.38;;;12.20;48.14
47080;BME280;33067;49.296;14.470;2023-04-19T06:49:22;97129.54;;;12.26;47.61
47080;BME280;33067;49.296;14.470;2023-04-19T06:51:47;97137.88;;;12.48;47.20
47080;BME280;33067;49.296;14.470;2023-04-19T06:54:12;97149.09;;;12.26;47.38
47080;BME280;33067;49.296;14.470;2023-04-19T06:56:39;97142.08;;;12.21;47.36
47080;BME280;33067;49.296;14.470;2023-04-19T06:59:03;97143.13;;;12.53;47.39
47080;BME280;33067;49.296;14.470;2023-04-19T07:01:28;97143.90;;;12.18;47.25
47080;BME280;33067;49.296;14.470;2023-04-19T07:03:54;97141.70;;;10.85;47.24
47080;BME280;33067;49.296;14.470;2023-04-19T07:06:19;97142.36;;;12.39;46.38
47080;BME280;33067;49.296;14.470;2023-04-19T07:08:44;97146.92;;;12.54;46.49
47080;BME280;33067;49.296;14.470;2023-04-19T07:11:09;97144.95;;;12.03;46.94
47080;BME280;33067;49.296;14.470;2023-04-19T07:13:35;97143.58;;;12.28;47.22
47080;BME280;33067;49.296;14.470;2023-04-19T07:16:03;97143.68;;;10.72;49.39
47080;BME280;33067;49.296;14.470;2023-04-19T07:18:25;97136.16;;;11.62;48.49
47080;BME280;33067;49.296;14.470;2023-04-19T07:20:50;97136.05;;;11.45;49.03
47080;BME280;33067;49.296;14.470;2023-04-19T07:23:15;97139.38;;;11.11;49.58
47080;BME280;33067;49.296;14.470;2023-04-19T07:25:41;97139.40;;;11.25;49.38
47080;BME280;33067;49.296;14.470;2023-04-19T07:28:07;97136.39;;;11.45;49.10
47080;BME280;33067;49.296;14.470;2023-04-19T07:30:32;97136.15;;;11.71;48.44
47080;BME280;33067;49.296;14.470;2023-04-19T07:32:58;97136.27;;;10.87;49.59
47080;BME280;33067;49.296;14.470;2023-04-19T07:35:23;97138.13;;;11.07;49.53
47080;BME280;33067;49.296;14.470;2023-04-19T07:37:48;97135.72;;;11.28;49.34
47080;BME280;33067;49.296;14.470;2023-04-19T07:40:14;97130.21;;;11.48;48.52
47080;BME280;33067;49.296;14.470;2023-04-19T07:42:39;97132.72;;;10.89;49.83
47080;BME280;33067;49.296;14.470;2023-04-19T07:45:05;97137.74;;;10.28;50.62
47080;BME280;33067;49.296;14.470;2023-04-19T07:47:29;97137.01;;;10.28;51.31
47080;BME280;33067;49.296;14.470;2023-04-19T07:49:55;97128.45;;;10.56;50.56
47080;BME280;33067;49.296;14.470;2023-04-19T07:52:20;97135.84;;;9.15;52.12
47080;BME280;33067;49.296;14.470;2023-04-19T07:54:45;97136.74;;;9.35;51.46
47080;BME280;33067;49.296;14.470;2023-04-19T07:57:11;97137.14;;;9.79;49.54
47080;BME280;33067;49.296;14.470;2023-04-19T07:59:36;97133.52;;;9.92;49.72
47080;BME280;33067;49.296;14.470;2023-04-19T08:02:02;97136.80;;;8.80;51.79
47080;BME280;33067;49.296;14.470;2023-04-19T08:04:27;97136.84;;;9.92;50.44
47080;BME280;33067;49.296;14.470;2023-04-19T08:06:53;97135.78;;;10.37;48.98
47080;BME280;33067;49.296;14.470;2023-04-19T08:09:18;97133.05;;;10.82;48.64
47080;BME280;33067;49.296;14.470;2023-04-19T08:11:43;97140.99;;;9.48;50.47
47080;BME280;33067;49.296;14.470;2023-04-19T08:14:08;97137.10;;;9.99;49.61
47080;BME280;33067;49.296;14.470;2023-04-19T08:16:34;97137.30;;;9.10;50.75
47080;BME280;33067;49.296;14.470;2023-04-19T08:18:59;97136.86;;;9.05;52.01
47080;BME280;33067;49.296;14.470;2023-04-19T08:21:25;97141.28;;;9.60;50.72
47080;BME280;33067;49.296;14.470;2023-04-19T08:23:50;97142.15;;;9.84;50.77
47080;BME280;33067;49.296;14.470;2023-04-19T08:26:16;97142.93;;;9.38;51.75
47080;BME280;33067;49.296;14.470;2023-04-19T08:28:41;97143.98;;;10.19;50.44
47080;BME280;33067;49.296;14.470;2023-04-19T08:31:07;97142.53;;;10.29;50.65
47080;BME280;33067;49.296;14.470;2023-04-19T08:33:32;97144.69;;;9.96;50.49
47080;BME280;33067;49.296;14.470;2023-04-19T08:35:58;97139.43;;;9.02;51.07
47080;BME280;33067;49.296;14.470;2023-04-19T08:38:23;97144.78;;;9.54;50.82
47080;BME280;33067;49.296;14.470;2023-04-19T08:40:51;97142.99;;;10.30;49.43
47080;BME280;33067;49.296;14.470;2023-04-19T08:43:14;97143.19;;;10.69;49.08
47080;BME280;33067;49.296;14.470;2023-04-19T08:45:39;97140.06;;;10.57;48.88
47080;BME280;33067;49.296;14.470;2023-04-19T08:48:07;97136.30;;;10.87;48.16
47080;BME280;33067;49.296;14.470;2023-04-19T08:50:30;97143.02;;;10.65;48.41
47080;BME280;33067;49.296;14.470;2023-04-19T08:52:57;97138.57;;;10.90;48.46
47080;BME280;33067;49.296;14.470;2023-04-19T08:55:21;97135.31;;;10.39;48.82
47080;BME280;33067;49.296;14.470;2023-04-19T08:57:47;97128.23;;;11.22;48.11
47080;BME280;33067;49.296;14.470;2023-04-19T09:00:13;97123.94;;;10.85;47.94
47080;BME280;33067;49.296;14.470;2023-04-19T09:02:45;97122.71;;;10.58;48.35
47080;BME280;33067;49.296;14.470;2023-04-19T09:05:04;97123.23;;;10.01;49.17
47080;BME280;33067;49.296;14.470;2023-04-19T09:07:29;97120.32;;;10.13;49.40
47080;BME280;33067;49.296;14.470;2023-04-19T09:10:04;97124.95;;;10.05;49.89
47080;BME280;33067;49.296;14.470;2023-04-19T09:12:20;97123.89;;;9.66;50.13
47080;BME280;33067;49.296;14.470;2023-04-19T09:14:46;97121.01;;;9.98;49.20
47080;BME280;33067;49.296;14.470;2023-04-19T09:17:12;97123.26;;;9.91;48.97
47080;BME280;33067;49.296;14.470;2023-04-19T09:19:44;97118.15;;;10.30;48.81
47080;BME280;33067;49.296;14.470;2023-04-19T09:22:11;97116.08;;;9.33;50.33
47080;BME280;33067;49.296;14.470;2023-04-19T09:24:37;97115.67;;;9.86;49.69
47080;BME280;33067;49.296;14.470;2023-04-19T09:26:54;97111.41;;;9.81;49.56
47080;BME280;33067;49.296;14.470;2023-04-19T09:29:18;97115.17;;;9.53;49.49
47080;BME280;33067;49.296;14.470;2023-04-19T09:31:55;97108.42;;;10.47;48.56
47080;BME280;33067;49.296;14.470;2023-04-19T09:34:13;97109.11;;;10.53;48.35
47080;BME280;33067;49.296;14.470;2023-04-19T09:36:35;97105.19;;;10.60;47.89
47080;BME280;33067;49.296;14.470;2023-04-19T09:39:01;97103.22;;;10.27;47.99
47080;BME280;33067;49.296;14.470;2023-04-19T09:41:26;97101.82;;;10.24;47.93
47080;BME280;33067;49.296;14.470;2023-04-19T09:43:52;97103.04;;;9.89;48.94
47080;BME280;33067;49.296;14.470;2023-04-19T09:46:30;97098.34;;;10.16;48.87
47080;BME280;33067;49.296;14.470;2023-04-19T09:48:43;97095.87;;;10.52;48.61
47080;BME280;33067;49.296;14.470;2023-04-19T09:51:08;97096.34;;;10.86;47.97
47080;BME280;33067;49.296;14.470;2023-04-19T09:53:34;97091.65;;;10.59;46.70
47080;BME280;33067;49.296;14.470;2023-04-19T09:55:59;97097.17;;;10.58;47.56
47080;BME280;33067;49.296;14.470;2023-04-19T09:58:25;97090.17;;;10.93;47.21
47080;BME280;33067;49.296;14.470;2023-04-19T10:00:50;97085.30;;;10.57;47.23
47080;BME280;33067;49.296;14.470;2023-04-19T10:03:16;97085.93;;;11.21;46.99
47080;BME280;33067;49.296;14.470;2023-04-19T10:05:41;97085.52;;;11.43;46.85
47080;BME280;33067;49.296;14.470;2023-04-19T10:08:07;97087.01;;;11.54;46.59
47080;BME280;33067;49.296;14.470;2023-04-19T10:10:31;97086.13;;;11.64;46.04
47080;BME280;33067;49.296;14.470;2023-04-19T10:12:56;97086.93;;;11.59;46.22
47080;BME280;33067;49.296;14.470;2023-04-19T10:15:22;97088.44;;;11.64;45.74
47080;BME280;33067;49.296;14.470;2023-04-19T10:17:47;97080.60;;;11.97;44.98
47080;BME280;33067;49.296;14.470;2023-04-19T10:20:19;97076.04;;;11.73;45.23
47080;BME280;33067;49.296;14.470;2023-04-19T10:22:38;97075.89;;;11.75;45.11
47080;BME280;33067;49.296;14.470;2023-04-19T10:25:10;97076.56;;;11.28;43.71
47080;BME280;33067;49.296;14.470;2023-04-19T10:27:28;97077.16;;;11.37;43.39
47080;BME280;33067;49.296;14.470;2023-04-19T10:29:54;97076.55;;;11.55;44.18
47080;BME280;33067;49.296;14.470;2023-04-19T10:32:19;97073.97;;;11.95;43.75
47080;BME280;33067;49.296;14.470;2023-04-19T10:34:45;97067.82;;;12.36;42.79
47080;BME280;33067;49.296;14.470;2023-04-19T10:37:09;97066.63;;;11.93;43.26
47080;BME280;33067;49.296;14.470;2023-04-19T10:39:41;97068.65;;;11.39;43.84
47080;BME280;33067;49.296;14.470;2023-04-19T10:42:00;97066.01;;;11.89;43.26
47080;BME280;33067;49.296;14.470;2023-04-19T10:44:25;97066.56;;;11.62;43.66
47080;BME280;33067;49.296;14.470;2023-04-19T10:46:51;97057.70;;;11.81;43.20
47080;BME280;33067;49.296;14.470;2023-04-19T10:49:16;97060.93;;;11.51;43.03
47080;BME280;33067;49.296;14.470;2023-04-19T10:51:48;97060.50;;;11.45;43.17
47080;BME280;33067;49.296;14.470;2023-04-19T10:54:07;97059.35;;;11.73;43.35
47080;BME280;33067;49.296;14.470;2023-04-19T10:59:13;97055.65;;;11.35;40.89
47080;BME280;33067;49.296;14.470;2023-04-19T11:01:32;97057.29;;;11.87;41.78
47080;BME280;33067;49.296;14.470;2023-04-19T11:03:51;97054.55;;;12.25;41.41
47080;BME280;33067;49.296;14.470;2023-04-19T11:06:15;97053.64;;;12.44;41.60
47080;BME280;33067;49.296;14.470;2023-04-19T11:08:41;97052.46;;;12.36;42.12
47080;BME280;33067;49.296;14.470;2023-04-19T11:11:04;97047.86;;;11.97;41.58
47080;BME280;33067;49.296;14.470;2023-04-19T11:13:29;97051.36;;;12.12;42.00
47080;BME280;33067;49.296;14.470;2023-04-19T11:15:57;97051.63;;;11.57;41.12
47080;BME280;33067;49.296;14.470;2023-04-19T11:18:21;97044.70;;;11.88;41.59
47080;BME280;33067;49.296;14.470;2023-04-19T11:20:51;97038.38;;;11.72;41.57
47080;BME280;33067;49.296;14.470;2023-04-19T11:23:15;97036.83;;;11.88;40.43
47080;BME280;33067;49.296;14.470;2023-04-19T11:25:37;97032.71;;;11.99;39.52
47080;BME280;33067;49.296;14.470;2023-04-19T11:28:02;97028.78;;;11.80;38.52
47080;BME280;33067;49.296;14.470;2023-04-19T11:30:29;97034.42;;;11.17;37.71
47080;BME280;33067;49.296;14.470;2023-04-19T11:32:54;97034.60;;;10.15;39.05
47080;BME280;33067;49.296;14.470;2023-04-19T11:35:20;97033.28;;;10.29;38.38
47080;BME280;33067;49.296;14.470;2023-04-19T11:37:45;97028.45;;;10.70;38.83
47080;BME280;33067;49.296;14.470;2023-04-19T11:40:14;97028.02;;;10.94;38.87
47080;BME280;33067;49.296;14.470;2023-04-19T11:42:35;97034.94;;;11.12;37.43
47080;BME280;33067;49.296;14.470;2023-04-19T11:45:01;97032.85;;;11.28;36.84
47080;BME280;33067;49.296;14.470;2023-04-19T11:47:26;97028.14;;;10.37;34.98
47080;BME280;33067;49.296;14.470;2023-04-19T11:49:53;97036.32;;;9.16;34.88
47080;BME280;33067;49.296;14.470;2023-04-19T11:52:21;97033.59;;;10.33;33.26
47080;BME280;33067;49.296;14.470;2023-04-19T11:54:41;97037.59;;;8.90;36.44
47080;BME280;33067;49.296;14.470;2023-04-19T11:57:07;97034.91;;;9.47;35.26
47080;BME280;33067;49.296;14.470;2023-04-19T11:59:33;97031.50;;;9.71;34.46
47080;BME280;33067;49.296;14.470;2023-04-19T12:02:04;97028.36;;;10.22;34.61
47080;BME280;33067;49.296;14.470;2023-04-19T12:04:23;97036.33;;;9.69;33.13
47080;BME280;33067;49.296;14.470;2023-04-19T12:06:55;97034.81;;;9.78;33.90
47080;BME280;33067;49.296;14.470;2023-04-19T12:09:19;97027.09;;;10.72;34.07
47080;BME280;33067;49.296;14.470;2023-04-19T12:11:43;97023.12;;;11.05;31.65
47080;BME280;33067;49.296;14.470;2023-04-19T12:14:07;97023.34;;;11.16;30.92
47080;BME280;33067;49.296;14.470;2023-04-19T12:16:31;97020.92;;;11.03;29.10
47080;BME280;33067;49.296;14.470;2023-04-19T12:18:56;97017.59;;;11.30;29.24
47080;BME280;33067;49.296;14.470;2023-04-19T12:21:25;97015.34;;;11.54;28.29
47080;BME280;33067;49.296;14.470;2023-04-19T12:23:47;97015.51;;;11.99;29.22
47080;BME280;33067;49.296;14.470;2023-04-19T12:26:13;97010.85;;;12.10;28.48
47080;BME280;33067;49.296;14.470;2023-04-19T12:28:38;97007.30;;;11.82;29.52
47080;BME280;33067;49.296;14.470;2023-04-19T12:31:04;97005.79;;;11.68;29.69
47080;BME280;33067;49.296;14.470;2023-04-19T12:33:28;97003.16;;;12.21;28.67
47080;BME280;33067;49.296;14.470;2023-04-19T12:35:54;97000.99;;;10.44;29.43
47080;BME280;33067;49.296;14.470;2023-04-19T12:38:20;96998.43;;;11.01;28.95
47080;BME280;33067;49.296;14.470;2023-04-19T12:40:46;96997.50;;;10.90;29.36
47080;BME280;33067;49.296;14.470;2023-04-19T12:43:11;96992.85;;;9.90;30.07
47080;BME280;33067;49.296;14.470;2023-04-19T12:45:36;96994.37;;;10.13;30.96